Westview Chinook — VG3278 — position and weather

sailwx.info

Track history (hours):
 
Tides and Currents Weather Stations Pressure Air Temp Water Temp Dewpoint Dewpoint Depression Visibility Wind Speed Wind Dir Waves Ship Positions

Westview Chinook

Last reported at 2014-Oct-31 19:30 UTC. Time now 2014-Oct-31 20:07 UTC.
Position N 49°12' W 122°54'.

Length 16 m; draft 3.5 m.

Type: Towing. MMSI: 316005622.

Date/timePositionNaut miles runAvg speedWind from/ knotsBaromVisibWave heightAir tempDewpointWater temp
2014-Oct-31 19:30N 49°12' W 122°54'7 7.2
2014-Oct-31 18:33N 49°12' W 123°04'3 3.0
2014-Oct-31 17:33N 49°12' W 123°09'5 4.9
2014-Oct-31 16:34N 49°15' W 123°15'4 3.9
2014-Oct-31 15:33N 49°13' W 123°10'3 2.7
2014-Oct-31 14:33N 49°12' W 123°06'8 3.6
2014-Oct-31 12:26N 49°12' W 122°55'2 2.8
2014-Oct-31 11:33N 49°10' W 122°57'0 0.1
2014-Oct-31 08:27N 49°09' W 122°57'5 5.3
2014-Oct-31 07:33N 49°13' W 122°53'6 6.3
2014-Oct-31 06:33N 49°11' W 122°43'7 3.3
2014-Oct-31 04:24N 49°12' W 122°54'3 3.4
2014-Oct-31 03:33N 49°10' W 122°56'1 0.8
2014-Oct-31 02:33N 49°09' W 122°58'4 1.5
2014-Oct-31 00:13N 49°12' W 122°54'4 5.4
2014-Oct-30 23:34N 49°09' W 122°57'6 6.1
2014-Oct-30 22:34N 49°13' W 122°50'3 3.1
2014-Oct-30 21:33N 49°12' W 122°54'1 1.4
2014-Oct-30 20:34N 49°11' W 122°55'1 1.5
2014-Oct-30 19:33N 49°10' W 122°57'1 0.7
2014-Oct-30 18:33N 49°10' W 122°58'2 1.8
2014-Oct-30 17:33N 49°10' W 122°56'6 5.6
2014-Oct-30 16:33N 49°13' W 122°48'5 4.9
2014-Oct-30 15:33N 49°11' W 122°41'2 1.7
2014-Oct-30 14:33N 49°11' W 122°44'2 2.1
2014-Oct-30 13:33N 49°13' W 122°45'3 3.3
2014-Oct-30 12:31N 49°11' W 122°41'5 5.1
2014-Oct-30 11:33N 49°13' W 122°48'4 4.2
2014-Oct-30 10:33N 49°12' W 122°54'4 3.9
2014-Oct-30 09:33N 49°09' W 122°59'3 3.0
2014-Oct-30 08:33N 49°11' W 122°55'8 7.5
2014-Oct-30 07:32N 49°12' W 122°44'1 1.3
2014-Oct-30 06:33N 49°13' W 122°45'7 7.1
2014-Oct-30 05:34N 49°11' W 122°55'0 0.2
2014-Oct-30 04:33N 49°11' W 122°55'7 6.8
2014-Oct-30 03:33N 49°13' W 122°46'1 1.4
2014-Oct-30 02:34N 49°12' W 122°44'6 5.8
2014-Oct-30 01:33N 49°13' W 122°53'5 5.0
2014-Oct-30 00:33N 49°10' W 122°58'2 1.8
2014-Oct-29 23:33N 49°10' W 122°56'2 1.7
2014-Oct-29 22:34N 49°10' W 122°58'0 0.0
2014-Oct-29 21:34N 49°10' W 122°58'1 0.7
2014-Oct-29 20:34N 49°10' W 122°57'1 1.4
2014-Oct-29 19:34N 49°11' W 122°55'0 0.4
2014-Oct-29 18:33N 49°10' W 122°56'4 4.0
2014-Oct-29 17:33N 49°13' W 122°52'0 0.2
2014-Oct-29 16:34N 49°13' W 122°52'2 2.0
2014-Oct-29 15:34N 49°13' W 122°49'4 3.4
2014-Oct-29 14:23N 49°11' W 122°44'1 1.4
2014-Oct-29 13:26N 49°11' W 122°42'3 2.8
2014-Oct-29 12:32N 49°13' W 122°44'4 3.7
2014-Oct-29 11:33N 49°13' W 122°50'4 4.3
2014-Oct-29 10:33N 49°11' W 122°55'2 1.9
2014-Oct-29 09:33N 49°11' W 122°58'6 6.3
2014-Oct-29 08:33N 49°12' W 123°08'6 5.8
2014-Oct-29 07:33N 49°15' W 123°15'2 2.4
2014-Oct-29 06:34N 49°17' W 123°17'6 6.3
2014-Oct-29 05:33N 49°19' W 123°08'4 4.1
2014-Oct-29 04:34N 49°18' W 123°14'7 6.7
2014-Oct-29 03:34N 49°12' W 123°09'9 8.3
2014-Oct-29 02:32N 49°12' W 122°56'1 0.3
2014-Oct-29 00:06N 49°12' W 122°55'4 7.0
2014-Oct-28 23:33N 49°09' W 122°59'7 7.1
2014-Oct-28 22:33N 49°07' W 123°09'1 1.5
2014-Oct-28 21:33N 49°07' W 123°11'8 8.1
2014-Oct-28 20:33N 49°09' W 122°59'6 6.2
2014-Oct-28 19:33N 49°13' W 122°52'5 5.0
2014-Oct-28 18:33N 49°13' W 122°45'1 0.5
2014-Oct-28 17:33N 49°13' W 122°44'5 3.9
2014-Oct-28 16:24N 49°13' W 122°51'6 1.2
2014-Oct-28 11:33N 49°11' W 122°60'5 4.8
2014-Oct-28 10:33N 49°12' W 123°07'6 5.8
2014-Oct-28 09:33N 49°11' W 122°58'8 8.1
2014-Oct-28 08:32N 49°13' W 122°46'3 3.5
2014-Oct-28 07:32N 49°11' W 122°41'4 4.0
2014-Oct-28 06:31N 49°13' W 122°47'5 5.7
2014-Oct-28 05:33N 49°11' W 122°55'4 3.8
2014-Oct-28 04:33N 49°09' W 123°00'3 3.2
2014-Oct-28 03:33N 49°08' W 123°04'1 1.4
2014-Oct-28 02:33N 49°07' W 123°06'6 6.0
2014-Oct-28 01:33N 49°09' W 122°58'3 3.4
2014-Oct-28 00:33N 49°12' W 122°54'7 6.7
2014-Oct-27 23:33N 49°13' W 122°44'2 2.2
2014-Oct-27 22:27N 49°11' W 122°41'4 4.6
2014-Oct-27 21:33N 49°15' W 122°45'2 1.5
2014-Oct-27 20:29N 49°13' W 122°44'6 6.2
2014-Oct-27 19:33N 49°13' W 122°53'4 4.4
2014-Oct-27 18:33N 49°10' W 122°58'3 2.9
2014-Oct-27 17:33N 49°12' W 122°54'3 3.0
2014-Oct-27 16:33N 49°09' W 122°58'5 4.9
2014-Oct-27 15:33N 49°13' W 122°52'6 6.4
2014-Oct-27 14:33N 49°11' W 122°43'0 0.4
2014-Oct-27 13:33N 49°11' W 122°42'4 0.4
2014-Oct-27 04:21N 49°14' W 122°46'0 0.0
2014-Oct-27 03:30N 49°14' W 122°46'0 0.0
2014-Oct-27 02:33N 49°14' W 122°46'0 0.0
2014-Oct-26 13:27N 49°14' W 122°46'0 0.0
2014-Oct-26 12:33N 49°14' W 122°46'0 0.0
2014-Oct-26 11:33N 49°14' W 122°46'0 0.0
2014-Oct-26 10:33N 49°14' W 122°46'0 0.0
2014-Oct-26 09:12N 49°14' W 122°46'0 0.0
2014-Oct-26 08:30N 49°14' W 122°46'0 0.0
2014-Oct-26 07:29N 49°14' W 122°46'0 0.0
2014-Oct-26 06:33N 49°14' W 122°46'3 3.2
2014-Oct-26 05:33N 49°13' W 122°51'6 6.3
2014-Oct-26 04:33N 49°11' W 122°60'7 6.9
2014-Oct-26 03:33N 49°13' W 123°10'3 2.6
2014-Oct-26 02:33N 49°14' W 123°14'4 4.3
2014-Oct-26 01:33N 49°12' W 123°08'3 2.9
2014-Oct-26 00:33N 49°12' W 123°04'1 0.6
2014-Oct-25 23:31N 49°12' W 123°03'0 0.0
2014-Oct-25 22:33N 49°12' W 123°03'0 0.0
2014-Oct-25 20:06N 49°12' W 123°03'0 0.0
2014-Oct-25 19:33N 49°12' W 123°03'0 0.0
2014-Oct-25 18:33N 49°12' W 123°03'0 0.0
2014-Oct-25 17:31N 49°12' W 123°03'0 0.0
2014-Oct-25 16:33N 49°12' W 123°03'0 0.0
2014-Oct-25 15:33N 49°12' W 123°03'0 0.0
2014-Oct-25 14:33N 49°12' W 123°03'0 0.0
2014-Oct-25 13:33N 49°12' W 123°03'0 0.0
2014-Oct-25 12:33N 49°12' W 123°03'0 0.0
2014-Oct-25 11:33N 49°12' W 123°03'0 0.0
2014-Oct-25 10:33N 49°12' W 123°03'0 0.0
2014-Oct-25 09:33N 49°12' W 123°03'0 0.0
2014-Oct-25 08:33N 49°12' W 123°03'0 0.0
2014-Oct-25 07:27N 49°12' W 123°03'0 0.0
2014-Oct-25 06:33N 49°12' W 123°03'0 0.0
2014-Oct-25 05:33N 49°12' W 123°03'0 0.0
2014-Oct-25 04:33N 49°12' W 123°03'0 0.0
2014-Oct-25 03:33N 49°12' W 123°03'0 0.0
2014-Oct-25 02:33N 49°12' W 123°03'0 0.0
2014-Oct-25 01:33N 49°12' W 123°03'0 0.0
2014-Oct-25 00:33N 49°12' W 123°03'0 0.0
2014-Oct-24 23:33N 49°12' W 123°03'0 0.4
2014-Oct-24 22:33N 49°12' W 123°02'5 4.7
2014-Oct-24 21:33N 49°11' W 122°55'1 1.3
2014-Oct-24 20:33N 49°10' W 122°56'7 7.0
2014-Oct-24 19:33N 49°07' W 123°06'4 3.9
2014-Oct-24 18:33N 49°07' W 123°11'3 3.4
2014-Oct-24 17:33N 49°07' W 123°06'8 7.7
2014-Oct-24 16:33N 49°10' W 122°56'7 6.6
2014-Oct-24 15:31N 49°13' W 122°46'4 3.9
2014-Oct-24 14:33N 49°11' W 122°41'5 5.0
2014-Oct-24 13:33N 49°13' W 122°48'4 3.8
2014-Oct-24 12:32N 49°13' W 122°54'0 0.5
2014-Oct-24 11:33N 49°13' W 122°53'4 4.2
2014-Oct-24 10:33N 49°10' W 122°57'3 2.7
2014-Oct-24 09:33N 49°12' W 122°54'1 1.5
2014-Oct-24 08:33N 49°13' W 122°53'7 6.8
2014-Oct-24 07:33N 49°11' W 122°43'1 0.9
2014-Oct-24 06:33N 49°11' W 122°42'3 2.7
2014-Oct-24 05:27N 49°13' W 122°45'4 4.9
2014-Oct-24 04:33N 49°13' W 122°52'5 5.2
2014-Oct-24 03:33N 49°11' W 122°59'4 3.7
2014-Oct-24 02:33N 49°12' W 123°04'6 5.5
2014-Oct-24 01:33N 49°10' W 122°56'3 2.9
2014-Oct-24 00:33N 49°12' W 122°54'7 6.6
2014-Oct-23 23:33N 49°13' W 122°44'2 2.3
2014-Oct-23 22:33N 49°11' W 122°41'1 0.6
2014-Oct-23 21:33N 49°11' W 122°42'2 1.6
2014-Oct-23 20:30N 49°12' W 122°44'5 4.9
2014-Oct-23 19:33N 49°13' W 122°51'5 4.5
2014-Oct-23 18:33N 49°10' W 122°56'1 1.1
2014-Oct-23 17:33N 49°09' W 122°57'5 4.7
2014-Oct-23 16:33N 49°13' W 122°53'6 5.7
2014-Oct-23 15:33N 49°13' W 122°44'2 2.2
2014-Oct-23 14:33N 49°11' W 122°41'6 6.1
2014-Oct-23 13:33N 49°13' W 122°50'5 4.4
2014-Oct-23 12:27N 49°12' W 122°57'5 5.1
2014-Oct-23 11:33N 49°12' W 123°04'3 3.2
2014-Oct-23 10:34N 49°12' W 123°09'3 3.3
2014-Oct-23 09:33N 49°12' W 123°04'6 5.3
2014-Oct-23 08:30N 49°12' W 122°56'3 3.3
2014-Oct-23 07:34N 49°13' W 122°51'1 0.8
2014-Oct-23 06:33N 49°13' W 122°52'7 6.9
2014-Oct-23 05:34N 49°12' W 122°42'4 3.5
2014-Oct-23 04:25N 49°12' W 122°36'5 5.7
2014-Oct-23 03:33N 49°13' W 122°44'6 5.7
2014-Oct-23 02:33N 49°13' W 122°52'6 5.8
2014-Oct-23 01:33N 49°09' W 122°59'3 3.4
2014-Oct-23 00:33N 49°08' W 123°04'5 4.7
2014-Oct-22 23:34N 49°09' W 122°57'5 4.8
2014-Oct-22 22:33N 49°13' W 122°52'5 5.4
2014-Oct-22 21:33N 49°13' W 122°44'2 1.8
2014-Oct-22 20:31N 49°14' W 122°45'1 1.1
2014-Oct-22 19:21N 49°13' W 122°45'2 2.3
2014-Oct-22 18:33N 49°15' W 122°44'0 0.0
2014-Oct-22 17:30N 49°15' W 122°44'2 2.2
2014-Oct-22 16:30N 49°13' W 122°46'7 6.6
2014-Oct-22 15:31N 49°12' W 122°56'3 3.0
2014-Oct-22 14:33N 49°11' W 123°00'10 4.0
2014-Oct-22 12:12N 49°14' W 122°46'0 0.0
2014-Oct-22 11:32N 49°14' W 122°46'0 0.0
2014-Oct-22 10:32N 49°14' W 122°46'0 0.0
2014-Oct-22 09:33N 49°14' W 122°46'0 0.0
2014-Oct-22 08:33N 49°14' W 122°46'0 0.0
2014-Oct-22 07:30N 49°14' W 122°46'0 0.0
2014-Oct-22 06:33N 49°14' W 122°46'0 0.0
2014-Oct-22 05:33N 49°14' W 122°46'0 0.0
2014-Oct-22 04:33N 49°14' W 122°46'0 0.0
2014-Oct-22 03:33N 49°14' W 122°46'0 0.0
2014-Oct-22 02:33N 49°14' W 122°46'0 0.0
2014-Oct-22 01:12N 49°14' W 122°46'0 0.0
2014-Oct-22 00:22N 49°14' W 122°46'1 1.7
2014-Oct-21 23:32N 49°13' W 122°44'7 7.2
2014-Oct-21 22:33N 49°11' W 122°55'2 1.7
2014-Oct-21 21:33N 49°10' W 122°56'4 4.4
2014-Oct-21 20:33N 49°13' W 122°53'4 4.1
2014-Oct-21 19:33N 49°10' W 122°56'  
Track history (hours):
 
Tides and Currents Weather Stations Pressure Air Temp Water Temp Dewpoint Dewpoint Depression Visibility Wind Speed Wind Dir Waves Ship Positions

Westview Chinook

Last reported at 2014-Oct-31 19:30 UTC. Time now 2014-Oct-31 20:07 UTC.
Position N 49°12' W 122°54'.

Length 16 m; draft 3.5 m.

Type: Towing. MMSI: 316005622.

Date/timePositionNaut miles runAvg speedWind from/ knotsBaromVisibWave heightAir tempDewpointWater temp
2014-Oct-31 19:30N 49°12' W 122°54'7 7.2
2014-Oct-31 18:33N 49°12' W 123°04'3 3.0
2014-Oct-31 17:33N 49°12' W 123°09'5 4.9
2014-Oct-31 16:34N 49°15' W 123°15'4 3.9
2014-Oct-31 15:33N 49°13' W 123°10'3 2.7
2014-Oct-31 14:33N 49°12' W 123°06'8 3.6
2014-Oct-31 12:26N 49°12' W 122°55'2 2.8
2014-Oct-31 11:33N 49°10' W 122°57'0 0.1
2014-Oct-31 08:27N 49°09' W 122°57'5 5.3
2014-Oct-31 07:33N 49°13' W 122°53'6 6.3
2014-Oct-31 06:33N 49°11' W 122°43'7 3.3
2014-Oct-31 04:24N 49°12' W 122°54'3 3.4
2014-Oct-31 03:33N 49°10' W 122°56'1 0.8
2014-Oct-31 02:33N 49°09' W 122°58'4 1.5
2014-Oct-31 00:13N 49°12' W 122°54'4 5.4
2014-Oct-30 23:34N 49°09' W 122°57'6 6.1
2014-Oct-30 22:34N 49°13' W 122°50'3 3.1
2014-Oct-30 21:33N 49°12' W 122°54'1 1.4
2014-Oct-30 20:34N 49°11' W 122°55'1 1.5
2014-Oct-30 19:33N 49°10' W 122°57'1 0.7
2014-Oct-30 18:33N 49°10' W 122°58'2 1.8
2014-Oct-30 17:33N 49°10' W 122°56'6 5.6
2014-Oct-30 16:33N 49°13' W 122°48'5 4.9
2014-Oct-30 15:33N 49°11' W 122°41'2 1.7
2014-Oct-30 14:33N 49°11' W 122°44'2 2.1
2014-Oct-30 13:33N 49°13' W 122°45'3 3.3
2014-Oct-30 12:31N 49°11' W 122°41'5 5.1
2014-Oct-30 11:33N 49°13' W 122°48'4 4.2
2014-Oct-30 10:33N 49°12' W 122°54'4 3.9
2014-Oct-30 09:33N 49°09' W 122°59'3 3.0
2014-Oct-30 08:33N 49°11' W 122°55'8 7.5
2014-Oct-30 07:32N 49°12' W 122°44'1 1.3
2014-Oct-30 06:33N 49°13' W 122°45'7 7.1
2014-Oct-30 05:34N 49°11' W 122°55'0 0.2
2014-Oct-30 04:33N 49°11' W 122°55'7 6.8
2014-Oct-30 03:33N 49°13' W 122°46'1 1.4
2014-Oct-30 02:34N 49°12' W 122°44'6 5.8
2014-Oct-30 01:33N 49°13' W 122°53'5 5.0
2014-Oct-30 00:33N 49°10' W 122°58'2 1.8
2014-Oct-29 23:33N 49°10' W 122°56'2 1.7
2014-Oct-29 22:34N 49°10' W 122°58'0 0.0
2014-Oct-29 21:34N 49°10' W 122°58'1 0.7
2014-Oct-29 20:34N 49°10' W 122°57'1 1.4
2014-Oct-29 19:34N 49°11' W 122°55'0 0.4
2014-Oct-29 18:33N 49°10' W 122°56'4 4.0
2014-Oct-29 17:33N 49°13' W 122°52'0 0.2
2014-Oct-29 16:34N 49°13' W 122°52'2 2.0
2014-Oct-29 15:34N 49°13' W 122°49'4 3.4
2014-Oct-29 14:23N 49°11' W 122°44'1 1.4
2014-Oct-29 13:26N 49°11' W 122°42'3 2.8
2014-Oct-29 12:32N 49°13' W 122°44'4 3.7
2014-Oct-29 11:33N 49°13' W 122°50'4 4.3
2014-Oct-29 10:33N 49°11' W 122°55'2 1.9
2014-Oct-29 09:33N 49°11' W 122°58'6 6.3
2014-Oct-29 08:33N 49°12' W 123°08'6 5.8
2014-Oct-29 07:33N 49°15' W 123°15'2 2.4
2014-Oct-29 06:34N 49°17' W 123°17'6 6.3
2014-Oct-29 05:33N 49°19' W 123°08'4 4.1
2014-Oct-29 04:34N 49°18' W 123°14'7 6.7
2014-Oct-29 03:34N 49°12' W 123°09'9 8.3
2014-Oct-29 02:32N 49°12' W 122°56'1 0.3
2014-Oct-29 00:06N 49°12' W 122°55'4 7.0
2014-Oct-28 23:33N 49°09' W 122°59'7 7.1
2014-Oct-28 22:33N 49°07' W 123°09'1 1.5
2014-Oct-28 21:33N 49°07' W 123°11'8 8.1
2014-Oct-28 20:33N 49°09' W 122°59'6 6.2
2014-Oct-28 19:33N 49°13' W 122°52'5 5.0
2014-Oct-28 18:33N 49°13' W 122°45'1 0.5
2014-Oct-28 17:33N 49°13' W 122°44'5 3.9
2014-Oct-28 16:24N 49°13' W 122°51'6 1.2
2014-Oct-28 11:33N 49°11' W 122°60'5 4.8
2014-Oct-28 10:33N 49°12' W 123°07'6 5.8
2014-Oct-28 09:33N 49°11' W 122°58'8 8.1
2014-Oct-28 08:32N 49°13' W 122°46'3 3.5
2014-Oct-28 07:32N 49°11' W 122°41'4 4.0
2014-Oct-28 06:31N 49°13' W 122°47'5 5.7
2014-Oct-28 05:33N 49°11' W 122°55'4 3.8
2014-Oct-28 04:33N 49°09' W 123°00'3 3.2
2014-Oct-28 03:33N 49°08' W 123°04'1 1.4
2014-Oct-28 02:33N 49°07' W 123°06'6 6.0
2014-Oct-28 01:33N 49°09' W 122°58'3 3.4
2014-Oct-28 00:33N 49°12' W 122°54'7 6.7
2014-Oct-27 23:33N 49°13' W 122°44'2 2.2
2014-Oct-27 22:27N 49°11' W 122°41'4 4.6
2014-Oct-27 21:33N 49°15' W 122°45'2 1.5
2014-Oct-27 20:29N 49°13' W 122°44'6 6.2
2014-Oct-27 19:33N 49°13' W 122°53'4 4.4
2014-Oct-27 18:33N 49°10' W 122°58'3 2.9
2014-Oct-27 17:33N 49°12' W 122°54'3 3.0
2014-Oct-27 16:33N 49°09' W 122°58'5 4.9
2014-Oct-27 15:33N 49°13' W 122°52'6 6.4
2014-Oct-27 14:33N 49°11' W 122°43'0 0.4
2014-Oct-27 13:33N 49°11' W 122°42'4 0.4
2014-Oct-27 04:21N 49°14' W 122°46'0 0.0
2014-Oct-27 03:30N 49°14' W 122°46'0 0.0
2014-Oct-27 02:33N 49°14' W 122°46'0 0.0
2014-Oct-26 13:27N 49°14' W 122°46'0 0.0
2014-Oct-26 12:33N 49°14' W 122°46'0 0.0
2014-Oct-26 11:33N 49°14' W 122°46'0 0.0
2014-Oct-26 10:33N 49°14' W 122°46'0 0.0
2014-Oct-26 09:12N 49°14' W 122°46'0 0.0
2014-Oct-26 08:30N 49°14' W 122°46'0 0.0
2014-Oct-26 07:29N 49°14' W 122°46'0 0.0
2014-Oct-26 06:33N 49°14' W 122°46'3 3.2
2014-Oct-26 05:33N 49°13' W 122°51'6 6.3
2014-Oct-26 04:33N 49°11' W 122°60'7 6.9
2014-Oct-26 03:33N 49°13' W 123°10'3 2.6
2014-Oct-26 02:33N 49°14' W 123°14'4 4.3
2014-Oct-26 01:33N 49°12' W 123°08'3 2.9
2014-Oct-26 00:33N 49°12' W 123°04'1 0.6
2014-Oct-25 23:31N 49°12' W 123°03'0 0.0
2014-Oct-25 22:33N 49°12' W 123°03'0 0.0
2014-Oct-25 20:06N 49°12' W 123°03'0 0.0
2014-Oct-25 19:33N 49°12' W 123°03'0 0.0
2014-Oct-25 18:33N 49°12' W 123°03'0 0.0
2014-Oct-25 17:31N 49°12' W 123°03'0 0.0
2014-Oct-25 16:33N 49°12' W 123°03'0 0.0
2014-Oct-25 15:33N 49°12' W 123°03'0 0.0
2014-Oct-25 14:33N 49°12' W 123°03'0 0.0
2014-Oct-25 13:33N 49°12' W 123°03'0 0.0
2014-Oct-25 12:33N 49°12' W 123°03'0 0.0
2014-Oct-25 11:33N 49°12' W 123°03'0 0.0
2014-Oct-25 10:33N 49°12' W 123°03'0 0.0
2014-Oct-25 09:33N 49°12' W 123°03'0 0.0
2014-Oct-25 08:33N 49°12' W 123°03'0 0.0
2014-Oct-25 07:27N 49°12' W 123°03'0 0.0
2014-Oct-25 06:33N 49°12' W 123°03'0 0.0
2014-Oct-25 05:33N 49°12' W 123°03'0 0.0
2014-Oct-25 04:33N 49°12' W 123°03'0 0.0
2014-Oct-25 03:33N 49°12' W 123°03'0 0.0
2014-Oct-25 02:33N 49°12' W 123°03'0 0.0
2014-Oct-25 01:33N 49°12' W 123°03'0 0.0
2014-Oct-25 00:33N 49°12' W 123°03'0 0.0
2014-Oct-24 23:33N 49°12' W 123°03'0 0.4
2014-Oct-24 22:33N 49°12' W 123°02'5 4.7
2014-Oct-24 21:33N 49°11' W 122°55'1 1.3
2014-Oct-24 20:33N 49°10' W 122°56'7 7.0
2014-Oct-24 19:33N 49°07' W 123°06'4 3.9
2014-Oct-24 18:33N 49°07' W 123°11'3 3.4
2014-Oct-24 17:33N 49°07' W 123°06'8 7.7
2014-Oct-24 16:33N 49°10' W 122°56'7 6.6
2014-Oct-24 15:31N 49°13' W 122°46'4 3.9
2014-Oct-24 14:33N 49°11' W 122°41'5 5.0
2014-Oct-24 13:33N 49°13' W 122°48'4 3.8
2014-Oct-24 12:32N 49°13' W 122°54'0 0.5
2014-Oct-24 11:33N 49°13' W 122°53'4 4.2
2014-Oct-24 10:33N 49°10' W 122°57'3 2.7
2014-Oct-24 09:33N 49°12' W 122°54'1 1.5
2014-Oct-24 08:33N 49°13' W 122°53'7 6.8
2014-Oct-24 07:33N 49°11' W 122°43'1 0.9
2014-Oct-24 06:33N 49°11' W 122°42'3 2.7
2014-Oct-24 05:27N 49°13' W 122°45'4 4.9
2014-Oct-24 04:33N 49°13' W 122°52'5 5.2
2014-Oct-24 03:33N 49°11' W 122°59'4 3.7
2014-Oct-24 02:33N 49°12' W 123°04'6 5.5
2014-Oct-24 01:33N 49°10' W 122°56'3 2.9
2014-Oct-24 00:33N 49°12' W 122°54'7 6.6
2014-Oct-23 23:33N 49°13' W 122°44'2 2.3
2014-Oct-23 22:33N 49°11' W 122°41'1 0.6
2014-Oct-23 21:33N 49°11' W 122°42'2 1.6
2014-Oct-23 20:30N 49°12' W 122°44'5 4.9
2014-Oct-23 19:33N 49°13' W 122°51'5 4.5
2014-Oct-23 18:33N 49°10' W 122°56'1 1.1
2014-Oct-23 17:33N 49°09' W 122°57'5 4.7
2014-Oct-23 16:33N 49°13' W 122°53'6 5.7
2014-Oct-23 15:33N 49°13' W 122°44'2 2.2
2014-Oct-23 14:33N 49°11' W 122°41'6 6.1
2014-Oct-23 13:33N 49°13' W 122°50'5 4.4
2014-Oct-23 12:27N 49°12' W 122°57'5 5.1
2014-Oct-23 11:33N 49°12' W 123°04'3 3.2
2014-Oct-23 10:34N 49°12' W 123°09'3 3.3
2014-Oct-23 09:33N 49°12' W 123°04'6 5.3
2014-Oct-23 08:30N 49°12' W 122°56'3 3.3
2014-Oct-23 07:34N 49°13' W 122°51'1 0.8
2014-Oct-23 06:33N 49°13' W 122°52'7 6.9
2014-Oct-23 05:34N 49°12' W 122°42'4 3.5
2014-Oct-23 04:25N 49°12' W 122°36'5 5.7
2014-Oct-23 03:33N 49°13' W 122°44'6 5.7
2014-Oct-23 02:33N 49°13' W 122°52'6 5.8
2014-Oct-23 01:33N 49°09' W 122°59'3 3.4
2014-Oct-23 00:33N 49°08' W 123°04'5 4.7
2014-Oct-22 23:34N 49°09' W 122°57'5 4.8
2014-Oct-22 22:33N 49°13' W 122°52'5 5.4
2014-Oct-22 21:33N 49°13' W 122°44'2 1.8
2014-Oct-22 20:31N 49°14' W 122°45'1 1.1
2014-Oct-22 19:21N 49°13' W 122°45'2 2.3
2014-Oct-22 18:33N 49°15' W 122°44'0 0.0
2014-Oct-22 17:30N 49°15' W 122°44'2 2.2
2014-Oct-22 16:30N 49°13' W 122°46'7 6.6
2014-Oct-22 15:31N 49°12' W 122°56'3 3.0
2014-Oct-22 14:33N 49°11' W 123°00'10 4.0
2014-Oct-22 12:12N 49°14' W 122°46'0 0.0
2014-Oct-22 11:32N 49°14' W 122°46'0 0.0
2014-Oct-22 10:32N 49°14' W 122°46'0 0.0
2014-Oct-22 09:33N 49°14' W 122°46'0 0.0
2014-Oct-22 08:33N 49°14' W 122°46'0 0.0
2014-Oct-22 07:30N 49°14' W 122°46'0 0.0
2014-Oct-22 06:33N 49°14' W 122°46'0 0.0
2014-Oct-22 05:33N 49°14' W 122°46'0 0.0
2014-Oct-22 04:33N 49°14' W 122°46'0 0.0
2014-Oct-22 03:33N 49°14' W 122°46'0 0.0
2014-Oct-22 02:33N 49°14' W 122°46'0 0.0
2014-Oct-22 01:12N 49°14' W 122°46'0 0.0
2014-Oct-22 00:22N 49°14' W 122°46'1 1.7
2014-Oct-21 23:32N 49°13' W 122°44'7 7.2
2014-Oct-21 22:33N 49°11' W 122°55'2 1.7
2014-Oct-21 21:33N 49°10' W 122°56'4 4.4
2014-Oct-21 20:33N 49°13' W 122°53'4 4.1
2014-Oct-21 19:33N 49°10' W 122°56'  

Dump ship's entire track history